KIKK/IKK METAR and TAF weather

Enter ICAO airport designator
Station Type Date Time Source
KIKK METAR 2019/09/21 05:15 UTC NOAA

KIKK 210515Z AUTO 19005KT 10SM CLR 22/20 A3012 RMK AO2 T02230195


Station Type Date Time Source
KIKK Decoded METAR 2019/09/21 05:15 UTC NOAA

Kankakee, Greater Kankakee Airport, IL, United States (KIKK) 41-04-17N 087-50-47W
Sep 21, 2019 - 01:15 AM EDT / 2019.09.21 0515 UTC
Wind: from the S (190 degrees) at 6 MPH (5 KT):0
Visibility: 10 mile(s):0
Sky conditions: clear
Temperature: 72.1 F (22.3 C)
Dew Point: 67.1 F (19.5 C)
Relative Humidity: 84%
Pressure (altimeter): 30.12 in. Hg (1019 hPa)
ob: KIKK 210515Z AUTO 19005KT 10SM CLR 22/20 A3012 RMK AO2 T02230195
cycle: 5

Station Type Date Time Source
KIKK TAF UTC NOAA

Error!

Example: see airport list